createdAt,value
2019-02-20T00:00:29.103Z,1012.07
2019-02-20T00:01:29.115Z,1012.08
2019-02-20T00:02:29.130Z,1012.04
2019-02-20T00:03:29.141Z,1012.01
2019-02-20T00:04:29.155Z,1012.02
2019-02-20T00:05:29.168Z,1012.04
2019-02-20T00:06:29.180Z,1012.05
2019-02-20T00:07:29.201Z,1012.01
2019-02-20T00:08:29.214Z,1012.00
2019-02-20T00:09:29.322Z,1012.04
2019-02-20T00:10:29.313Z,1012.05
2019-02-20T00:11:29.322Z,1012.10
2019-02-20T00:12:29.313Z,1012.09
2019-02-20T00:13:29.317Z,1012.11
2019-02-20T00:14:29.380Z,1012.15
2019-02-20T00:15:29.375Z,1012.10
2019-02-20T00:16:29.389Z,1012.15
2019-02-20T00:17:29.374Z,1012.10
2019-02-20T00:18:29.379Z,1012.15
2019-02-20T00:19:29.370Z,1012.15
2019-02-20T00:20:29.387Z,1012.19
2019-02-20T00:21:29.398Z,1012.21
2019-02-20T00:22:29.411Z,1012.20
2019-02-20T00:23:29.426Z,1012.19
2019-02-20T00:24:29.441Z,1012.19
2019-02-20T00:25:29.454Z,1012.20
2019-02-20T00:26:29.469Z,1012.24
2019-02-20T00:27:29.482Z,1012.19
2019-02-20T00:28:29.494Z,1012.21
2019-02-20T00:29:29.513Z,1012.22
2019-02-20T00:30:29.528Z,1012.15
2019-02-20T00:31:29.540Z,1012.20
2019-02-20T00:32:29.553Z,1012.23
2019-02-20T00:33:29.570Z,1012.22
2019-02-20T00:34:29.582Z,1012.21
2019-02-20T00:35:29.601Z,1012.23
2019-02-20T00:36:29.613Z,1012.26
2019-02-20T00:37:29.626Z,1012.23
2019-02-20T00:38:29.644Z,1012.21
2019-02-20T00:39:29.650Z,1012.22
2019-02-20T00:40:29.665Z,1012.23
2019-02-20T00:41:29.680Z,1012.26
2019-02-20T00:42:29.696Z,1012.24
2019-02-20T00:43:29.715Z,1012.27
2019-02-20T00:44:29.725Z,1012.28
2019-02-20T00:45:29.738Z,1012.23
2019-02-20T00:46:29.753Z,1012.23
2019-02-20T00:47:29.768Z,1012.19
2019-02-20T00:48:29.783Z,1012.24
2019-02-20T00:49:29.798Z,1012.27
2019-02-20T00:50:29.810Z,1012.25
2019-02-20T00:51:29.829Z,1012.27
2019-02-20T00:52:29.836Z,1012.20
2019-02-20T00:53:29.850Z,1012.22
2019-02-20T00:54:29.868Z,1012.24
2019-02-20T00:55:29.883Z,1012.28
2019-02-20T00:56:29.897Z,1012.30
2019-02-20T00:57:29.911Z,1012.31
2019-02-20T00:58:29.926Z,1012.29
2019-02-20T00:59:29.939Z,1012.30
2019-02-20T01:00:29.956Z,1012.28
2019-02-20T01:01:29.965Z,1012.34
2019-02-20T01:02:29.981Z,1012.29
2019-02-20T01:03:29.995Z,1012.33
2019-02-20T01:04:30.009Z,1012.25
2019-02-20T01:05:30.023Z,1012.30
2019-02-20T01:06:30.037Z,1012.26
2019-02-20T01:07:30.052Z,1012.30
2019-02-20T01:08:30.069Z,1012.28
2019-02-20T01:09:30.081Z,1012.25
2019-02-20T01:10:30.098Z,1012.22
2019-02-20T01:11:30.111Z,1012.24
2019-02-20T01:12:30.123Z,1012.24
2019-02-20T01:13:30.139Z,1012.17
2019-02-20T01:14:30.151Z,1012.20
2019-02-20T01:15:30.181Z,1012.24
2019-02-20T01:16:30.184Z,1012.20
2019-02-20T01:17:30.196Z,1012.25
2019-02-20T01:18:30.222Z,1012.31
2019-02-20T01:19:30.223Z,1012.33
2019-02-20T01:20:30.236Z,1012.33
2019-02-20T01:21:30.250Z,1012.34
2019-02-20T01:22:30.267Z,1012.28
2019-02-20T01:23:30.280Z,1012.26
2019-02-20T01:24:30.295Z,1012.25
2019-02-20T01:25:30.310Z,1012.31
2019-02-20T01:26:30.323Z,1012.23
2019-02-20T01:27:30.337Z,1012.26
2019-02-20T01:28:30.350Z,1012.20
2019-02-20T01:29:30.366Z,1012.26
2019-02-20T01:30:30.380Z,1012.23
2019-02-20T01:31:30.396Z,1012.25
2019-02-20T01:32:30.410Z,1012.19
2019-02-20T01:33:30.424Z,1012.26
2019-02-20T01:34:30.442Z,1012.32
2019-02-20T01:35:30.452Z,1012.35
2019-02-20T01:36:30.466Z,1012.27
2019-02-20T01:37:30.480Z,1012.23
2019-02-20T01:38:30.492Z,1012.25
2019-02-20T01:39:30.510Z,1012.30
2019-02-20T01:40:30.520Z,1012.31
2019-02-20T01:41:30.535Z,1012.32
2019-02-20T01:42:30.552Z,1012.30
2019-02-20T01:43:30.567Z,1012.33
2019-02-20T01:44:30.579Z,1012.28
2019-02-20T01:45:30.597Z,1012.28
2019-02-20T01:46:30.611Z,1012.25
2019-02-20T01:47:30.622Z,1012.20
2019-02-20T01:48:30.634Z,1012.16
2019-02-20T01:49:30.651Z,1012.15
2019-02-20T01:50:30.663Z,1012.11
2019-02-20T01:51:30.674Z,1012.11
2019-02-20T01:52:30.691Z,1012.05
2019-02-20T01:53:30.705Z,1012.13
2019-02-20T01:54:30.721Z,1012.08
2019-02-20T01:55:30.743Z,1012.11
2019-02-20T01:56:30.752Z,1012.13
2019-02-20T01:57:30.764Z,1012.12
2019-02-20T01:58:30.778Z,1012.11
2019-02-20T01:59:30.791Z,1012.11
2019-02-20T02:00:30.804Z,1012.10
2019-02-20T02:01:30.820Z,1012.12
2019-02-20T02:02:30.834Z,1012.08
2019-02-20T02:03:30.851Z,1012.16
2019-02-20T02:04:30.864Z,1012.20
2019-02-20T02:05:30.882Z,1012.16
2019-02-20T02:06:30.892Z,1012.28
2019-02-20T02:07:30.908Z,1012.32
2019-02-20T02:08:30.921Z,1012.29
2019-02-20T02:09:30.933Z,1012.24
2019-02-20T02:10:30.947Z,1012.27
2019-02-20T02:11:30.964Z,1012.28
2019-02-20T02:12:30.976Z,1012.26
2019-02-20T02:13:30.990Z,1012.29
2019-02-20T02:14:31.003Z,1012.26
2019-02-20T02:15:31.021Z,1012.25
2019-02-20T02:16:31.033Z,1012.23
2019-02-20T02:17:31.048Z,1012.25
2019-02-20T02:18:31.066Z,1012.22
2019-02-20T02:19:31.157Z,1012.24
2019-02-20T02:20:31.165Z,1012.23
2019-02-20T02:21:31.159Z,1012.22
2019-02-20T02:22:31.154Z,1012.27
2019-02-20T02:23:31.217Z,1012.24
2019-02-20T02:24:31.217Z,1012.25
2019-02-20T02:25:31.215Z,1012.26
2019-02-20T02:26:31.206Z,1012.28
2019-02-20T02:27:31.215Z,1012.27
2019-02-20T02:28:31.213Z,1012.29
2019-02-20T02:29:31.231Z,1012.26
2019-02-20T02:30:31.237Z,1012.24
2019-02-20T02:31:31.248Z,1012.24
2019-02-20T02:32:31.262Z,1012.26
2019-02-20T02:33:31.278Z,1012.25
2019-02-20T02:34:31.291Z,1012.23
2019-02-20T02:35:31.301Z,1012.32
2019-02-20T02:36:31.314Z,1012.25
2019-02-20T02:37:31.330Z,1012.32
2019-02-20T02:38:31.349Z,1012.29
2019-02-20T02:39:31.361Z,1012.25
2019-02-20T02:40:31.372Z,1012.27
2019-02-20T02:41:31.391Z,1012.27
2019-02-20T02:42:31.400Z,1012.30
2019-02-20T02:43:31.419Z,1012.32
2019-02-20T02:44:31.431Z,1012.29
2019-02-20T02:45:31.446Z,1012.29
2019-02-20T02:46:31.463Z,1012.32
2019-02-20T02:47:31.473Z,1012.38
2019-02-20T02:48:31.490Z,1012.35
2019-02-20T02:49:31.511Z,1012.36
2019-02-20T02:50:31.515Z,1012.36
2019-02-20T02:51:31.532Z,1012.36
2019-02-20T02:52:31.545Z,1012.32
2019-02-20T02:53:31.559Z,1012.35
2019-02-20T02:54:31.576Z,1012.30
2019-02-20T02:55:31.591Z,1012.37
2019-02-20T02:56:31.602Z,1012.38
2019-02-20T02:57:31.621Z,1012.34
2019-02-20T02:58:31.629Z,1012.38
2019-02-20T02:59:31.644Z,1012.38
2019-02-20T03:00:31.657Z,1012.34
2019-02-20T03:01:31.669Z,1012.34
2019-02-20T03:02:31.690Z,1012.40
2019-02-20T03:03:31.708Z,1012.37
2019-02-20T03:04:31.727Z,1012.37
2019-02-20T03:05:31.728Z,1012.36
2019-02-20T03:06:31.742Z,1012.37
2019-02-20T03:07:31.756Z,1012.41
2019-02-20T03:08:31.768Z,1012.36
2019-02-20T03:09:31.781Z,1012.36
2019-02-20T03:10:31.797Z,1012.32
2019-02-20T03:11:31.812Z,1012.34
2019-02-20T03:12:31.824Z,1012.40
2019-02-20T03:13:31.838Z,1012.38
2019-02-20T03:14:31.850Z,1012.33
2019-02-20T03:15:31.866Z,1012.30
2019-02-20T03:16:31.880Z,1012.28
2019-02-20T03:17:31.891Z,1012.39
2019-02-20T03:18:31.907Z,1012.36
2019-02-20T03:19:31.921Z,1012.39
2019-02-20T03:20:31.933Z,1012.41
2019-02-20T03:21:31.951Z,1012.36
2019-02-20T03:22:31.961Z,1012.43
2019-02-20T03:23:39.984Z,1012.44
2019-02-20T03:24:31.990Z,1012.44
2019-02-20T03:25:32.005Z,1012.43
2019-02-20T03:26:32.020Z,1012.40
2019-02-20T03:27:32.033Z,1012.44
2019-02-20T03:28:32.046Z,1012.46
2019-02-20T03:29:32.059Z,1012.49
2019-02-20T03:30:32.077Z,1012.50
2019-02-20T03:31:32.085Z,1012.47
2019-02-20T03:32:32.100Z,1012.48
2019-02-20T03:33:32.114Z,1012.49
2019-02-20T03:34:32.125Z,1012.52
2019-02-20T03:35:32.141Z,1012.50
2019-02-20T03:36:32.157Z,1012.53
2019-02-20T03:37:32.168Z,1012.53
2019-02-20T03:38:32.242Z,1012.60
2019-02-20T03:39:32.195Z,1012.58
2019-02-20T03:40:32.206Z,1012.59
2019-02-20T03:41:32.224Z,1012.65
2019-02-20T03:42:32.236Z,1012.61
2019-02-20T03:43:32.247Z,1012.61
2019-02-20T03:44:32.264Z,1012.62
2019-02-20T03:45:32.271Z,1012.61
2019-02-20T03:46:32.289Z,1012.65
2019-02-20T03:47:32.303Z,1012.68
2019-02-20T03:48:32.317Z,1012.70
2019-02-20T03:49:32.330Z,1012.67
2019-02-20T03:50:32.342Z,1012.66
2019-02-20T03:51:32.356Z,1012.65
2019-02-20T03:52:32.368Z,1012.70
2019-02-20T03:53:32.381Z,1012.65
2019-02-20T03:54:32.406Z,1012.62
2019-02-20T03:55:32.441Z,1012.65
2019-02-20T03:56:32.422Z,1012.65
2019-02-20T03:57:32.438Z,1012.65
2019-02-20T03:58:33.365Z,1012.66
2019-02-20T03:59:32.471Z,1012.71
2019-02-20T04:00:32.480Z,1012.68
2019-02-20T04:01:32.493Z,1012.67
2019-02-20T04:02:32.506Z,1012.71
2019-02-20T04:03:32.519Z,1012.72
2019-02-20T04:04:32.533Z,1012.73
2019-02-20T04:05:32.542Z,1012.77
2019-02-20T04:06:32.559Z,1012.73
2019-02-20T04:07:32.576Z,1012.64
2019-02-20T04:08:32.586Z,1012.70
2019-02-20T04:09:32.599Z,1012.68
2019-02-20T04:10:32.613Z,1012.65
2019-02-20T04:11:32.626Z,1012.71
2019-02-20T04:12:32.638Z,1012.67
2019-02-20T04:13:32.650Z,1012.69
2019-02-20T04:14:32.666Z,1012.71
2019-02-20T04:15:32.681Z,1012.68
2019-02-20T04:16:32.693Z,1012.74
2019-02-20T04:17:32.706Z,1012.78
2019-02-20T04:18:32.721Z,1012.76
2019-02-20T04:19:32.736Z,1012.78
2019-02-20T04:20:32.749Z,1012.78
2019-02-20T04:21:32.766Z,1012.81
2019-02-20T04:22:32.777Z,1012.80
2019-02-20T04:23:32.794Z,1012.76
2019-02-20T04:24:32.805Z,1012.77
2019-02-20T04:25:32.815Z,1012.78
2019-02-20T04:26:32.832Z,1012.86
2019-02-20T04:27:32.847Z,1012.84
2019-02-20T04:28:32.860Z,1012.79
2019-02-20T04:29:32.873Z,1012.80
2019-02-20T04:30:32.888Z,1012.83
2019-02-20T04:31:32.913Z,1012.85
2019-02-20T04:32:32.946Z,1012.85
2019-02-20T04:33:32.996Z,1012.83
2019-02-20T04:34:32.995Z,1012.87
2019-02-20T04:35:32.988Z,1012.86
2019-02-20T04:36:33.060Z,1012.87
2019-02-20T04:37:33.057Z,1012.83
2019-02-20T04:38:33.059Z,1012.87
2019-02-20T04:39:33.058Z,1012.84
2019-02-20T04:40:33.054Z,1012.82
2019-02-20T04:41:33.046Z,1012.83
2019-02-20T04:42:33.056Z,1012.82
2019-02-20T04:43:33.072Z,1012.80
2019-02-20T04:44:33.085Z,1012.83
2019-02-20T04:45:33.110Z,1012.86
2019-02-20T04:46:33.112Z,1012.86
2019-02-20T04:47:33.129Z,1012.87
2019-02-20T04:48:33.140Z,1012.87
2019-02-20T04:49:33.155Z,1012.91
2019-02-20T04:50:33.170Z,1012.96
2019-02-20T04:51:33.194Z,1012.96
2019-02-20T04:52:33.195Z,1012.92
2019-02-20T04:53:33.210Z,1012.90
2019-02-20T04:54:33.223Z,1012.92
2019-02-20T04:55:33.243Z,1012.88
2019-02-20T04:56:33.255Z,1012.90
2019-02-20T04:57:33.270Z,1012.94
2019-02-20T04:58:33.285Z,1012.93
2019-02-20T04:59:33.298Z,1012.93
2019-02-20T05:00:33.318Z,1012.91
2019-02-20T05:01:33.329Z,1012.90
2019-02-20T05:02:33.340Z,1012.83
2019-02-20T05:03:33.352Z,1012.87
2019-02-20T05:04:33.366Z,1012.83
2019-02-20T05:05:33.384Z,1012.81
2019-02-20T05:06:33.398Z,1012.83
2019-02-20T05:07:33.412Z,1012.86
2019-02-20T05:08:33.426Z,1012.88
2019-02-20T05:09:33.456Z,1012.86
2019-02-20T05:10:33.457Z,1012.89
2019-02-20T05:11:33.470Z,1012.90
2019-02-20T05:12:33.483Z,1012.93
2019-02-20T05:13:33.499Z,1012.95
2019-02-20T05:14:33.511Z,1012.91
2019-02-20T05:15:33.529Z,1012.88
2019-02-20T05:16:33.543Z,1012.90
2019-02-20T05:17:33.557Z,1012.90
2019-02-20T05:18:33.571Z,1012.91
2019-02-20T05:19:33.597Z,1012.98
2019-02-20T05:20:33.605Z,1012.98
2019-02-20T05:21:33.613Z,1012.96
2019-02-20T05:22:33.629Z,1013.00
2019-02-20T05:23:33.641Z,1012.99
2019-02-20T05:24:33.660Z,1012.93
2019-02-20T05:25:33.671Z,1012.95
2019-02-20T05:26:33.685Z,1012.94
2019-02-20T05:27:33.702Z,1012.92
2019-02-20T05:28:33.719Z,1012.93
2019-02-20T05:29:33.727Z,1012.89
2019-02-20T05:30:33.745Z,1012.89
2019-02-20T05:31:33.760Z,1012.90
2019-02-20T05:32:33.771Z,1012.90
2019-02-20T05:33:33.793Z,1012.91
2019-02-20T05:34:33.801Z,1012.97
2019-02-20T05:35:33.817Z,1012.96
2019-02-20T05:36:33.830Z,1012.96
2019-02-20T05:37:33.844Z,1012.95
2019-02-20T05:38:33.859Z,1012.97
2019-02-20T05:39:33.879Z,1012.93
2019-02-20T05:40:33.887Z,1012.93
2019-02-20T05:41:33.904Z,1013.00
2019-02-20T05:42:33.919Z,1013.02
2019-02-20T05:43:33.929Z,1013.01
2019-02-20T05:44:33.947Z,1013.03
2019-02-20T05:45:33.960Z,1013.02
2019-02-20T05:46:33.974Z,1013.05
2019-02-20T05:47:33.992Z,1013.06
2019-02-20T05:48:34.006Z,1013.07
2019-02-20T05:49:34.049Z,1013.10
2019-02-20T05:50:34.034Z,1013.10
2019-02-20T05:51:34.063Z,1013.16
2019-02-20T05:52:34.063Z,1013.19
2019-02-20T05:53:34.078Z,1013.18
2019-02-20T05:54:35.135Z,1013.20
2019-02-20T05:55:34.107Z,1013.21
2019-02-20T05:56:34.119Z,1013.22
2019-02-20T05:57:36.396Z,1013.26
2019-02-20T05:58:34.150Z,1013.29
2019-02-20T05:59:34.174Z,1013.29
2019-02-20T06:00:34.181Z,1013.23
2019-02-20T06:01:34.192Z,1013.24
2019-02-20T06:02:34.208Z,1013.22
2019-02-20T06:03:34.222Z,1013.21
2019-02-20T06:04:34.235Z,1013.26
2019-02-20T06:05:34.261Z,1013.26
2019-02-20T06:06:34.269Z,1013.24
2019-02-20T06:07:34.286Z,1013.26
2019-02-20T06:08:34.295Z,1013.28
2019-02-20T06:09:34.308Z,1013.25
2019-02-20T06:10:34.331Z,1013.25
2019-02-20T06:11:34.345Z,1013.26
2019-02-20T06:12:34.355Z,1013.22
2019-02-20T06:13:34.387Z,1013.26
2019-02-20T06:14:34.393Z,1013.25
2019-02-20T06:15:34.396Z,1013.26
2019-02-20T06:16:34.411Z,1013.25
2019-02-20T06:17:34.427Z,1013.26
2019-02-20T06:18:34.439Z,1013.29
2019-02-20T06:19:34.458Z,1013.28
2019-02-20T06:20:34.470Z,1013.28
2019-02-20T06:21:34.487Z,1013.30
2019-02-20T06:22:34.502Z,1013.31
2019-02-20T06:23:34.520Z,1013.31
2019-02-20T06:24:43.637Z,1013.38
2019-02-20T06:25:34.543Z,1013.38
2019-02-20T06:26:34.561Z,1013.39
2019-02-20T06:27:34.574Z,1013.43
2019-02-20T06:28:34.588Z,1013.46
2019-02-20T06:29:34.601Z,1013.48
2019-02-20T06:30:34.618Z,1013.51
2019-02-20T06:31:34.632Z,1013.50
2019-02-20T06:32:34.646Z,1013.53
2019-02-20T06:33:34.662Z,1013.51
2019-02-20T06:34:34.677Z,1013.50
2019-02-20T06:35:34.692Z,1013.53
2019-02-20T06:36:34.705Z,1013.54
2019-02-20T06:37:34.770Z,1013.53
2019-02-20T06:38:34.737Z,1013.57
2019-02-20T06:39:34.837Z,1013.49
2019-02-20T06:40:34.833Z,1013.55
2019-02-20T06:41:39.220Z,1013.54
2019-02-20T06:42:34.833Z,1013.55
2019-02-20T06:43:34.898Z,1013.59
2019-02-20T06:44:34.866Z,1013.55
2019-02-20T06:45:34.911Z,1013.58
2019-02-20T06:46:34.888Z,1013.59
2019-02-20T06:47:34.902Z,1013.60
2019-02-20T06:48:34.897Z,1013.59
2019-02-20T06:49:34.899Z,1013.57
2019-02-20T06:50:34.914Z,1013.62
2019-02-20T06:51:34.929Z,1013.62
2019-02-20T06:52:34.941Z,1013.65
2019-02-20T06:53:34.960Z,1013.66
2019-02-20T06:54:35.032Z,1013.67
2019-02-20T06:55:34.987Z,1013.66
2019-02-20T06:56:34.999Z,1013.72
2019-02-20T06:57:35.016Z,1013.71
2019-02-20T06:58:35.032Z,1013.70
2019-02-20T06:59:35.049Z,1013.66
2019-02-20T07:00:35.063Z,1013.69
2019-02-20T07:01:35.078Z,1013.66
2019-02-20T07:02:35.832Z,1013.67
2019-02-20T07:03:35.107Z,1013.69
2019-02-20T07:04:35.120Z,1013.70
2019-02-20T07:05:35.140Z,1013.69
2019-02-20T07:06:35.151Z,1013.72
2019-02-20T07:07:35.168Z,1013.77
2019-02-20T07:08:35.184Z,1013.78
2019-02-20T07:09:35.201Z,1013.81
2019-02-20T07:10:35.212Z,1013.82
2019-02-20T07:11:35.230Z,1013.79
2019-02-20T07:12:35.247Z,1013.82
2019-02-20T07:13:35.260Z,1013.77
2019-02-20T07:14:35.276Z,1013.76
2019-02-20T07:15:35.290Z,1013.78
2019-02-20T07:16:35.308Z,1013.77
2019-02-20T07:17:35.318Z,1013.78
2019-02-20T07:18:35.334Z,1013.88
2019-02-20T07:19:35.353Z,1013.98
2019-02-20T07:20:35.367Z,1013.96
2019-02-20T07:21:35.381Z,1014.06
2019-02-20T07:22:35.399Z,1014.11
2019-02-20T07:23:35.412Z,1014.11
2019-02-20T07:24:35.427Z,1014.12
2019-02-20T07:25:35.442Z,1014.11
2019-02-20T07:26:35.457Z,1014.10
2019-02-20T07:27:35.485Z,1014.16
2019-02-20T07:28:35.488Z,1014.19
2019-02-20T07:29:35.505Z,1014.23
2019-02-20T07:30:35.520Z,1014.23
2019-02-20T07:31:35.540Z,1014.26
2019-02-20T07:32:35.551Z,1014.26
2019-02-20T07:33:35.571Z,1014.21
2019-02-20T07:34:35.583Z,1014.30
2019-02-20T07:35:35.598Z,1014.29
2019-02-20T07:36:35.619Z,1014.31
2019-02-20T07:37:35.626Z,1014.36
2019-02-20T07:38:35.640Z,1014.34
2019-02-20T07:39:35.660Z,1014.37
2019-02-20T07:40:35.677Z,1014.41
2019-02-20T07:41:35.691Z,1014.40
2019-02-20T07:42:35.705Z,1014.38
2019-02-20T07:43:35.722Z,1014.36
2019-02-20T07:44:35.736Z,1014.34
2019-02-20T07:45:35.749Z,1014.41
2019-02-20T07:46:35.766Z,1014.43
2019-02-20T07:47:35.780Z,1014.44
2019-02-20T07:48:35.794Z,1014.47
2019-02-20T07:49:35.811Z,1014.46
2019-02-20T07:50:35.836Z,1014.45
2019-02-20T07:51:35.842Z,1014.52
2019-02-20T07:52:35.856Z,1014.52
2019-02-20T07:53:35.874Z,1014.54
2019-02-20T07:54:35.888Z,1014.54
2019-02-20T07:55:35.902Z,1014.56
2019-02-20T07:56:35.917Z,1014.51
2019-02-20T07:57:35.932Z,1014.54
2019-02-20T07:58:35.945Z,1014.57
2019-02-20T07:59:35.964Z,1014.61
2019-02-20T08:00:35.977Z,1014.61
2019-02-20T08:01:35.993Z,1014.64
2019-02-20T08:02:36.008Z,1014.62
2019-02-20T08:03:36.025Z,1014.66
2019-02-20T08:04:36.043Z,1014.66
2019-02-20T08:05:36.056Z,1014.70
2019-02-20T08:06:36.070Z,1014.65
2019-02-20T08:07:36.083Z,1014.70
2019-02-20T08:08:36.099Z,1014.71
2019-02-20T08:09:36.115Z,1014.67
2019-02-20T08:10:36.129Z,1014.70
2019-02-20T08:11:36.147Z,1014.77
2019-02-20T08:12:36.164Z,1014.72
2019-02-20T08:13:39.267Z,1014.70
2019-02-20T08:14:36.197Z,1014.69
2019-02-20T08:15:36.212Z,1014.73
2019-02-20T08:16:36.222Z,1014.72
2019-02-20T08:17:36.241Z,1014.74
2019-02-20T08:18:36.253Z,1014.67
2019-02-20T08:19:36.271Z,1014.68
2019-02-20T08:20:36.284Z,1014.76
2019-02-20T08:21:36.297Z,1014.70
2019-02-20T08:22:36.312Z,1014.66
2019-02-20T08:23:36.329Z,1014.77
2019-02-20T08:24:36.345Z,1014.71
2019-02-20T08:25:36.365Z,1014.73
2019-02-20T08:26:36.374Z,1014.73
2019-02-20T08:27:36.394Z,1014.80
2019-02-20T08:28:36.404Z,1014.76
2019-02-20T08:29:36.418Z,1014.75
2019-02-20T08:30:36.438Z,1014.74
2019-02-20T08:31:36.453Z,1014.72
2019-02-20T08:32:36.467Z,1014.77
2019-02-20T08:33:36.481Z,1014.76
2019-02-20T08:34:36.506Z,1014.83
2019-02-20T08:35:36.515Z,1014.81
2019-02-20T08:36:36.529Z,1014.85
2019-02-20T08:37:36.543Z,1014.83
2019-02-20T08:38:36.562Z,1014.92
2019-02-20T08:39:36.576Z,1014.99
2019-02-20T08:40:36.591Z,1015.02
2019-02-20T08:41:36.683Z,1015.09
2019-02-20T08:42:36.698Z,1015.05
2019-02-20T08:43:36.686Z,1015.05
2019-02-20T08:44:36.704Z,1015.07
2019-02-20T08:45:36.743Z,1015.09
2019-02-20T08:46:36.753Z,1015.09
2019-02-20T08:47:36.740Z,1015.07
2019-02-20T08:48:36.746Z,1015.12
2019-02-20T08:49:36.758Z,1015.15
2019-02-20T08:50:36.748Z,1015.20
2019-02-20T08:51:36.766Z,1015.22
2019-02-20T08:52:36.781Z,1015.25
2019-02-20T08:53:36.809Z,1015.32
2019-02-20T08:54:36.815Z,1015.34
2019-02-20T08:55:36.833Z,1015.36
2019-02-20T08:56:36.844Z,1015.35
2019-02-20T08:57:36.871Z,1015.36
2019-02-20T08:58:36.879Z,1015.37
2019-02-20T08:59:36.898Z,1015.37
2019-02-20T09:00:36.912Z,1015.34
2019-02-20T09:01:36.931Z,1015.33
2019-02-20T09:02:36.949Z,1015.35
2019-02-20T09:03:36.970Z,1015.34
2019-02-20T09:04:36.987Z,1015.38
2019-02-20T09:05:36.999Z,1015.42
2019-02-20T09:06:37.016Z,1015.39
2019-02-20T09:07:37.031Z,1015.40
2019-02-20T09:08:37.052Z,1015.36
2019-02-20T09:09:37.066Z,1015.41
2019-02-20T09:10:37.083Z,1015.47
2019-02-20T09:11:37.101Z,1015.48
2019-02-20T09:12:37.118Z,1015.55
2019-02-20T09:13:37.138Z,1015.51
2019-02-20T09:14:37.153Z,1015.52
2019-02-20T09:15:37.170Z,1015.52
2019-02-20T09:16:37.185Z,1015.54
2019-02-20T09:17:37.204Z,1015.59
2019-02-20T09:18:37.223Z,1015.62
2019-02-20T09:19:37.235Z,1015.60
2019-02-20T09:20:37.254Z,1015.63
2019-02-20T09:21:37.273Z,1015.67
2019-02-20T09:22:37.296Z,1015.66
2019-02-20T09:23:37.313Z,1015.67
2019-02-20T09:24:37.331Z,1015.64
2019-02-20T09:25:41.517Z,1015.66
2019-02-20T09:26:37.361Z,1015.66
2019-02-20T09:27:37.381Z,1015.64
2019-02-20T09:28:37.394Z,1015.68
2019-02-20T09:29:37.410Z,1015.67
2019-02-20T09:30:37.431Z,1015.68
2019-02-20T09:31:37.447Z,1015.68
2019-02-20T09:32:37.472Z,1015.72
2019-02-20T09:33:37.481Z,1015.67
2019-02-20T09:34:37.501Z,1015.73
2019-02-20T09:35:37.519Z,1015.71
2019-02-20T09:36:37.536Z,1015.71
2019-02-20T09:37:37.552Z,1015.72
2019-02-20T09:38:37.575Z,1015.77
2019-02-20T09:39:37.598Z,1015.82
2019-02-20T09:40:37.608Z,1015.74
2019-02-20T09:41:37.620Z,1015.79
2019-02-20T09:42:37.639Z,1015.77
2019-02-20T09:43:37.664Z,1015.77
2019-02-20T09:44:37.679Z,1015.79
2019-02-20T09:45:42.229Z,1015.80
2019-02-20T09:46:37.717Z,1015.80
2019-02-20T09:47:37.731Z,1015.80
2019-02-20T09:48:37.747Z,1015.84
2019-02-20T09:49:37.764Z,1015.79
2019-02-20T09:50:37.782Z,1015.80
2019-02-20T09:51:37.800Z,1015.85
2019-02-20T09:52:37.820Z,1015.80
2019-02-20T09:53:37.837Z,1015.82
2019-02-20T09:54:37.856Z,1015.79
2019-02-20T09:55:37.876Z,1015.85
2019-02-20T09:56:37.891Z,1015.85
2019-02-20T09:57:37.912Z,1015.91
2019-02-20T09:58:37.930Z,1015.85
2019-02-20T09:59:37.950Z,1015.88
2019-02-20T10:00:37.965Z,1015.85
2019-02-20T10:01:37.983Z,1015.97
2019-02-20T10:02:38.006Z,1015.95
2019-02-20T10:03:38.022Z,1015.92
2019-02-20T10:04:38.038Z,1015.93
2019-02-20T10:05:38.057Z,1015.89
2019-02-20T10:06:38.076Z,1015.90
2019-02-20T10:07:38.093Z,1015.88
2019-02-20T10:08:38.113Z,1015.91
2019-02-20T10:09:38.131Z,1015.87
2019-02-20T10:10:38.151Z,1015.89
2019-02-20T10:11:38.175Z,1015.91
2019-02-20T10:12:38.184Z,1015.80
2019-02-20T10:13:38.202Z,1015.83
2019-02-20T10:14:40.221Z,1015.81
2019-02-20T10:15:38.249Z,1015.80
2019-02-20T10:16:38.262Z,1015.78
2019-02-20T10:17:38.282Z,1015.82
2019-02-20T10:18:38.299Z,1015.84
2019-02-20T10:19:38.316Z,1015.83
2019-02-20T10:20:38.335Z,1015.84
2019-02-20T10:21:38.356Z,1015.90
2019-02-20T10:22:38.372Z,1015.97
2019-02-20T10:23:38.397Z,1015.96
2019-02-20T10:24:38.408Z,1015.97
2019-02-20T10:25:38.430Z,1016.00
2019-02-20T10:26:38.449Z,1016.00
2019-02-20T10:27:38.477Z,1016.08
2019-02-20T10:28:38.562Z,1016.05
2019-02-20T10:29:38.553Z,1016.00
2019-02-20T10:30:38.577Z,1016.06
2019-02-20T10:31:38.618Z,1016.14
2019-02-20T10:32:38.614Z,1016.17
2019-02-20T10:33:38.615Z,1016.15
2019-02-20T10:34:38.612Z,1016.16
2019-02-20T10:35:38.621Z,1016.12
2019-02-20T10:36:38.641Z,1016.21
2019-02-20T10:37:38.661Z,1016.10
2019-02-20T10:38:38.681Z,1016.09
2019-02-20T10:39:38.702Z,1016.08
2019-02-20T10:40:38.718Z,1016.13
2019-02-20T10:41:38.737Z,1016.10
2019-02-20T10:42:38.757Z,1016.13
2019-02-20T10:43:38.790Z,1016.13
2019-02-20T10:44:38.797Z,1016.11
2019-02-20T10:45:38.824Z,1016.08
2019-02-20T10:46:38.835Z,1016.11
2019-02-20T10:47:38.863Z,1016.06
2019-02-20T10:48:38.872Z,1016.07
2019-02-20T10:49:38.892Z,1016.06
2019-02-20T10:50:38.913Z,1016.06
2019-02-20T10:51:38.929Z,1016.05
2019-02-20T10:52:38.948Z,1016.09
2019-02-20T10:53:38.999Z,1016.04
2019-02-20T10:54:38.989Z,1016.10
2019-02-20T10:55:39.011Z,1016.07
2019-02-20T10:56:39.030Z,1016.13
2019-02-20T10:57:39.049Z,1016.10
2019-02-20T10:58:39.069Z,1016.10
2019-02-20T10:59:39.085Z,1016.11
2019-02-20T11:00:39.106Z,1016.14
2019-02-20T11:01:39.125Z,1016.10
2019-02-20T11:02:39.143Z,1016.08
2019-02-20T11:03:39.169Z,1016.12
2019-02-20T11:04:39.186Z,1016.08
2019-02-20T11:05:39.205Z,1016.08
2019-02-20T11:06:39.225Z,1016.13
2019-02-20T11:07:39.244Z,1016.10
2019-02-20T11:08:39.262Z,1016.07
2019-02-20T11:09:39.283Z,1016.10
2019-02-20T11:10:39.300Z,1016.08
2019-02-20T11:11:39.320Z,1016.08
2019-02-20T11:12:39.342Z,1016.05
2019-02-20T11:13:39.360Z,1016.11
2019-02-20T11:14:39.379Z,1016.01
2019-02-20T11:15:39.401Z,1016.03
2019-02-20T11:16:39.421Z,1015.96
2019-02-20T11:17:39.439Z,1015.99
2019-02-20T11:18:39.460Z,1016.05
2019-02-20T11:19:39.476Z,1016.06
2019-02-20T11:20:39.496Z,1016.04
2019-02-20T11:21:39.519Z,1016.03
2019-02-20T11:22:39.536Z,1016.04
2019-02-20T11:23:39.557Z,1016.02
2019-02-20T11:24:39.576Z,1016.02
2019-02-20T11:25:39.594Z,1015.99
2019-02-20T11:26:50.263Z,1016.00
2019-02-20T11:27:39.730Z,1015.99
2019-02-20T11:28:39.653Z,1015.94
2019-02-20T11:29:39.672Z,1015.99
2019-02-20T11:30:39.693Z,1015.95
2019-02-20T11:31:39.709Z,1016.02
2019-02-20T11:32:39.730Z,1016.12
2019-02-20T11:33:39.749Z,1016.12
2019-02-20T11:34:39.766Z,1016.08
2019-02-20T11:35:39.788Z,1016.10
2019-02-20T11:36:40.537Z,1016.06
2019-02-20T11:37:39.827Z,1015.98
2019-02-20T11:38:39.847Z,1016.04
2019-02-20T11:39:39.863Z,1016.00
2019-02-20T11:40:39.881Z,1015.97
2019-02-20T11:41:39.900Z,1015.96
2019-02-20T11:42:39.926Z,1015.99
2019-02-20T11:43:39.938Z,1015.97
2019-02-20T11:44:39.956Z,1015.98
2019-02-20T11:45:39.977Z,1015.97
2019-02-20T11:46:39.996Z,1015.96
2019-02-20T11:47:40.018Z,1015.99
2019-02-20T11:48:40.039Z,1016.01
2019-02-20T11:49:40.054Z,1016.01
2019-02-20T11:50:40.075Z,1015.98
2019-02-20T11:51:40.096Z,1015.95
2019-02-20T11:52:40.114Z,1015.99
2019-02-20T11:53:40.131Z,1015.92
2019-02-20T11:54:40.151Z,1015.90
2019-02-20T11:55:40.172Z,1015.88
2019-02-20T11:56:40.192Z,1015.88
2019-02-20T11:57:40.211Z,1015.86
2019-02-20T11:58:40.230Z,1015.88
2019-02-20T11:59:40.250Z,1015.92
2019-02-20T12:00:40.267Z,1015.91
2019-02-20T12:01:40.290Z,1015.90
2019-02-20T12:02:42.123Z,1015.89
2019-02-20T12:03:40.324Z,1015.86
2019-02-20T12:04:40.353Z,1015.89
2019-02-20T12:05:40.432Z,1015.89